Time;durP1;ratioP1;P1;durP2;ratioP2;P2;SDS_P1;SDS_P2;PMS_P1;PMS_P2;Temp;Humidity;BMP_temperature;BMP_pressure;BME280_temperature;BME280_humidity;BME280_pressure;Samples;Min_cycle;Max_cycle;Signal;HPM_P1;HPM_P2
2022/05/22 00:01:23;;;;;;;19.30;9.60;;;;;;;;;;5104438;28;20030;-66
2022/05/22 00:03:50;;;;;;;14.95;9.25;;;;;;;;;;5103732;28;20293;-66
2022/05/22 00:06:15;;;;;;;17.73;9.48;;;;;;;;;;5100091;28;20444;-66
2022/05/22 00:08:40;;;;;;;18.63;9.38;;;;;;;;;;5099132;28;20169;-65
2022/05/22 00:11:05;;;;;;;13.00;8.98;;;;;;;;;;5104569;28;20040;-67
2022/05/22 00:13:31;;;;;;;19.15;9.73;;;;;;;;;;5104669;28;20078;-66
2022/05/22 00:18:41;;;;;;;14.73;9.18;;;;;;;;;;5102975;28;20080;-67
2022/05/22 00:21:06;;;;;;;18.13;8.73;;;;;;;;;;5103264;28;20023;-66
2022/05/22 00:23:33;;;;;;;15.70;8.82;;;;;;;;;;5100018;28;20016;-66
2022/05/22 00:25:58;;;;;;;13.02;7.93;;;;;;;;;;5103832;28;20400;-67
2022/05/22 00:28:23;;;;;;;13.80;8.52;;;;;;;;;;5103891;28;20019;-66
2022/05/22 00:30:49;;;;;;;13.93;8.48;;;;;;;;;;5097098;28;20036;-67
2022/05/22 00:33:17;;;;;;;11.60;7.72;;;;;;;;;;5084377;28;20051;-66
2022/05/22 00:35:42;;;;;;;11.82;7.70;;;;;;;;;;5089865;28;20024;-66
2022/05/22 00:38:07;;;;;;;15.48;9.68;;;;;;;;;;5083217;28;20034;-66
2022/05/22 00:40:33;;;;;;;16.92;8.20;;;;;;;;;;5082002;28;20028;-66
2022/05/22 00:42:59;;;;;;;11.43;7.82;;;;;;;;;;5067844;28;20024;-66
2022/05/22 00:45:24;;;;;;;13.70;7.15;;;;;;;;;;5085256;28;20486;-67
2022/05/22 00:47:53;;;;;;;11.80;8.18;;;;;;;;;;5083549;28;20473;-66
2022/05/22 00:50:19;;;;;;;12.55;8.48;;;;;;;;;;5085239;28;20012;-65
2022/05/22 00:52:47;;;;;;;13.32;7.82;;;;;;;;;;5078526;28;20016;-66
2022/05/22 00:55:12;;;;;;;16.92;8.45;;;;;;;;;;5080941;28;20028;-66
2022/05/22 00:57:44;;;;;;;15.77;8.88;;;;;;;;;;5080468;28;20511;-66
2022/05/22 01:00:14;;;;;;;12.57;8.13;;;;;;;;;;5087268;28;20065;-66
2022/05/22 01:05:23;;;;;;;13.13;7.57;;;;;;;;;;5105721;28;20055;-67
2022/05/22 01:07:49;;;;;;;12.55;7.40;;;;;;;;;;5100356;28;20024;-67
2022/05/22 01:10:15;;;;;;;14.40;7.00;;;;;;;;;;5101818;28;20022;-67
2022/05/22 01:12:42;;;;;;;14.68;7.95;;;;;;;;;;5102101;28;20067;-66
2022/05/22 01:15:08;;;;;;;11.07;7.55;;;;;;;;;;5103937;28;20038;-67
2022/05/22 01:17:41;;;;;;;16.80;7.75;;;;;;;;;;5102509;28;20028;-66
2022/05/22 01:20:06;;;;;;;13.02;7.25;;;;;;;;;;5093376;28;20028;-67
2022/05/22 01:22:31;;;;;;;12.65;7.40;;;;;;;;;;5096957;28;20024;-67
2022/05/22 01:24:57;;;;;;;11.52;7.47;;;;;;;;;;5100307;28;20315;-66
2022/05/22 01:27:23;;;;;;;11.82;7.05;;;;;;;;;;5103742;28;20016;-66
2022/05/22 01:29:48;;;;;;;11.90;6.72;;;;;;;;;;5104268;28;20019;-68
2022/05/22 01:32:14;;;;;;;12.88;6.80;;;;;;;;;;5105391;28;20050;-66
2022/05/22 01:34:40;;;;;;;11.07;7.55;;;;;;;;;;5083496;28;20026;-67
2022/05/22 01:37:05;;;;;;;8.98;6.93;;;;;;;;;;5072602;28;20119;-67
2022/05/22 01:39:31;;;;;;;13.50;7.50;;;;;;;;;;5082396;28;20435;-66
2022/05/22 01:41:56;;;;;;;12.48;7.03;;;;;;;;;;5100276;28;20223;-68
2022/05/22 01:44:22;;;;;;;11.13;6.03;;;;;;;;;;5105374;28;20463;-66
2022/05/22 01:46:47;;;;;;;10.27;6.45;;;;;;;;;;5096457;28;20102;-68
2022/05/22 01:49:13;;;;;;;9.88;6.57;;;;;;;;;;5088258;28;20111;-67
2022/05/22 01:51:44;;;;;;;9.15;5.97;;;;;;;;;;5064152;28;20074;-66
2022/05/22 01:54:09;;;;;;;10.38;6.75;;;;;;;;;;5084777;28;20024;-66
2022/05/22 01:56:36;;;;;;;12.48;7.35;;;;;;;;;;5086486;28;20173;-66
2022/05/22 01:59:01;;;;;;;12.75;6.53;;;;;;;;;;5101455;28;20509;-66
2022/05/22 02:01:26;;;;;;;14.82;7.60;;;;;;;;;;5107723;28;20513;-66
2022/05/22 02:03:51;;;;;;;15.25;8.48;;;;;;;;;;5088961;28;20023;-66
2022/05/22 02:06:17;;;;;;;13.55;8.45;;;;;;;;;;5085416;28;20031;-66
2022/05/22 02:08:45;;;;;;;14.63;9.43;;;;;;;;;;5081138;28;20020;-66
2022/05/22 02:11:11;;;;;;;14.05;8.50;;;;;;;;;;5085332;28;20040;-67
2022/05/22 02:13:43;;;;;;;14.45;8.00;;;;;;;;;;5087820;28;20042;-66
2022/05/22 02:16:08;;;;;;;14.85;7.60;;;;;;;;;;5069394;28;20108;-67
2022/05/22 02:18:34;;;;;;;15.27;7.75;;;;;;;;;;5087796;28;20507;-66
2022/05/22 02:21:02;;;;;;;11.55;7.40;;;;;;;;;;5084595;28;20024;-67
2022/05/22 02:23:30;;;;;;;10.80;7.25;;;;;;;;;;5097377;28;20023;-66
2022/05/22 02:25:55;;;;;;;12.73;7.55;;;;;;;;;;5099293;28;20049;-66
2022/05/22 02:28:21;;;;;;;13.00;7.25;;;;;;;;;;5085301;28;20085;-66
2022/05/22 02:30:49;;;;;;;14.10;8.30;;;;;;;;;;5085823;28;20028;-67
2022/05/22 02:33:15;;;;;;;13.40;9.05;;;;;;;;;;5086347;28;20020;-68
2022/05/22 02:35:40;;;;;;;16.38;8.68;;;;;;;;;;5100963;28;20011;-67
2022/05/22 02:38:05;;;;;;;18.10;9.13;;;;;;;;;;5100197;27;20244;-67
2022/05/22 02:40:31;;;;;;;15.60;8.77;;;;;;;;;;5104771;28;20015;-66
2022/05/22 02:42:57;;;;;;;12.55;9.27;;;;;;;;;;5104307;28;20467;-66
2022/05/22 02:45:25;;;;;;;15.50;9.18;;;;;;;;;;5106603;28;20035;-66
2022/05/22 02:47:51;;;;;;;12.20;8.40;;;;;;;;;;5105530;28;20098;-67
2022/05/22 02:50:18;;;;;;;13.40;9.40;;;;;;;;;;5107203;28;20110;-65
2022/05/22 02:52:44;;;;;;;16.33;9.95;;;;;;;;;;5101597;28;20023;-66
2022/05/22 02:55:09;;;;;;;15.48;9.88;;;;;;;;;;5085254;28;20032;-66
2022/05/22 02:57:38;;;;;;;10.90;8.23;;;;;;;;;;5105981;28;20037;-66
2022/05/22 03:00:05;;;;;;;12.90;8.77;;;;;;;;;;5105457;28;20015;-65
2022/05/22 03:02:30;;;;;;;10.95;8.88;;;;;;;;;;5091330;28;20043;-67
2022/05/22 03:04:55;;;;;;;17.80;10.23;;;;;;;;;;5085579;28;20487;-66
2022/05/22 03:07:20;;;;;;;13.45;9.98;;;;;;;;;;5085289;28;20074;-67
2022/05/22 03:09:47;;;;;;;16.80;10.18;;;;;;;;;;5104199;28;20039;-67
2022/05/22 03:12:15;;;;;;;18.83;10.13;;;;;;;;;;5086705;28;20067;-67
2022/05/22 03:14:44;;;;;;;15.70;10.07;;;;;;;;;;5105350;28;20037;-67
2022/05/22 03:17:10;;;;;;;12.98;9.70;;;;;;;;;;5085388;28;20031;-67
2022/05/22 03:19:35;;;;;;;17.67;10.43;;;;;;;;;;5085920;28;20343;-67
2022/05/22 03:22:00;;;;;;;13.95;9.75;;;;;;;;;;5083000;28;20027;-67
2022/05/22 03:24:25;;;;;;;17.15;9.93;;;;;;;;;;5103546;28;20046;-66
2022/05/22 03:26:54;;;;;;;15.27;9.52;;;;;;;;;;5105055;28;20431;-66
2022/05/22 03:29:19;;;;;;;12.02;9.18;;;;;;;;;;5089619;28;20040;-67
2022/05/22 03:31:44;;;;;;;17.27;10.45;;;;;;;;;;5085627;28;20028;-66
2022/05/22 03:34:10;;;;;;;13.70;9.30;;;;;;;;;;5094881;28;20129;-67
2022/05/22 03:36:41;;;;;;;13.68;9.93;;;;;;;;;;5097718;28;20438;-66
2022/05/22 03:39:06;;;;;;;14.60;9.18;;;;;;;;;;5102498;28;20050;-67
2022/05/22 03:41:33;;;;;;;14.15;9.40;;;;;;;;;;5105396;28;20019;-66
2022/05/22 03:43:59;;;;;;;17.98;10.57;;;;;;;;;;5104759;27;20019;-67
2022/05/22 03:46:24;;;;;;;16.58;10.13;;;;;;;;;;5105315;28;20127;-66
2022/05/22 03:48:50;;;;;;;14.82;10.07;;;;;;;;;;5106003;27;20015;-66
2022/05/22 03:51:15;;;;;;;12.48;9.30;;;;;;;;;;5085221;28;20546;-66
2022/05/22 03:53:41;;;;;;;14.77;9.95;;;;;;;;;;5101649;28;20263;-67
2022/05/22 03:56:13;;;;;;;14.98;9.88;;;;;;;;;;5103771;28;20067;-68
2022/05/22 03:58:39;;;;;;;14.68;9.65;;;;;;;;;;5106535;28;20020;-67
2022/05/22 04:01:04;;;;;;;14.07;9.88;;;;;;;;;;5104800;28;20024;-67
2022/05/22 04:03:30;;;;;;;14.48;9.40;;;;;;;;;;5105494;28;20388;-67
2022/05/22 04:05:56;;;;;;;16.25;10.20;;;;;;;;;;5103455;28;20020;-65
2022/05/22 04:08:22;;;;;;;14.35;10.32;;;;;;;;;;5078141;28;20020;-67
2022/05/22 04:10:47;;;;;;;15.07;9.93;;;;;;;;;;5083422;28;20048;-66
2022/05/22 04:13:13;;;;;;;13.40;9.25;;;;;;;;;;5083337;28;20314;-67
2022/05/22 04:15:38;;;;;;;14.05;8.95;;;;;;;;;;5084462;28;20016;-66
2022/05/22 04:18:03;;;;;;;16.00;10.40;;;;;;;;;;5080917;28;20104;-67
2022/05/22 04:20:29;;;;;;;13.32;8.90;;;;;;;;;;5083463;28;20016;-67
2022/05/22 04:25:38;;;;;;;14.90;9.70;;;;;;;;;;5100812;28;20050;-66
2022/05/22 04:28:04;;;;;;;16.35;9.88;;;;;;;;;;5101928;28;20056;-66
2022/05/22 04:30:29;;;;;;;15.00;10.18;;;;;;;;;;5095183;28;20012;-66
2022/05/22 04:32:57;;;;;;;14.77;10.38;;;;;;;;;;5100223;28;20450;-66
2022/05/22 04:35:23;;;;;;;13.07;9.10;;;;;;;;;;5069775;28;20043;-66
2022/05/22 04:37:48;;;;;;;17.17;9.57;;;;;;;;;;5084052;28;20028;-66
2022/05/22 04:40:13;;;;;;;15.95;9.90;;;;;;;;;;5081300;28;20067;-66
2022/05/22 04:42:39;;;;;;;14.52;8.75;;;;;;;;;;5083283;28;20132;-67
2022/05/22 04:45:06;;;;;;;17.05;9.68;;;;;;;;;;5084304;28;20036;-67
2022/05/22 04:47:33;;;;;;;15.13;8.50;;;;;;;;;;5087598;28;20039;-66
2022/05/22 04:49:59;;;;;;;15.88;9.15;;;;;;;;;;5093588;28;20124;-67
2022/05/22 04:52:24;;;;;;;15.20;8.95;;;;;;;;;;5087631;28;20027;-65
2022/05/22 04:54:51;;;;;;;16.48;8.68;;;;;;;;;;5107474;28;20032;-66
2022/05/22 04:57:16;;;;;;;13.52;7.72;;;;;;;;;;5105152;28;20036;-66
2022/05/22 04:59:41;;;;;;;11.82;7.38;;;;;;;;;;5106633;28;20027;-66
2022/05/22 05:02:07;;;;;;;13.57;7.88;;;;;;;;;;5104181;28;20019;-67
2022/05/22 05:04:32;;;;;;;13.90;8.60;;;;;;;;;;5106219;28;20030;-66
2022/05/22 05:06:58;;;;;;;15.32;8.43;;;;;;;;;;5100813;28;20035;-66
2022/05/22 05:09:24;;;;;;;14.30;8.73;;;;;;;;;;5102176;28;20027;-67
2022/05/22 05:11:49;;;;;;;14.80;8.82;;;;;;;;;;5103891;28;20051;-67
2022/05/22 05:14:14;;;;;;;18.77;9.15;;;;;;;;;;5096209;28;20467;-66
2022/05/22 05:16:39;;;;;;;16.50;8.43;;;;;;;;;;5082229;28;20227;-67
2022/05/22 05:19:05;;;;;;;14.25;7.82;;;;;;;;;;5085824;28;20020;-67
2022/05/22 05:21:30;;;;;;;19.25;8.73;;;;;;;;;;5087677;28;20027;-67
2022/05/22 05:23:56;;;;;;;14.85;8.65;;;;;;;;;;5084353;28;20117;-67
2022/05/22 05:26:22;;;;;;;16.73;8.07;;;;;;;;;;5097712;28;20088;-68
2022/05/22 05:28:47;;;;;;;13.80;8.30;;;;;;;;;;5109645;28;20318;-67
2022/05/22 05:31:12;;;;;;;17.77;8.73;;;;;;;;;;5106205;28;20368;-68
2022/05/22 05:33:38;;;;;;;19.65;7.60;;;;;;;;;;5108366;28;20024;-67
2022/05/22 05:36:10;;;;;;;14.20;8.35;;;;;;;;;;5106559;28;20038;-68
2022/05/22 05:38:36;;;;;;;15.00;8.75;;;;;;;;;;5105272;28;20401;-67
2022/05/22 05:41:01;;;;;;;17.70;8.35;;;;;;;;;;5108138;28;20070;-66
2022/05/22 05:43:27;;;;;;;16.13;8.95;;;;;;;;;;5106911;28;20110;-67
2022/05/22 05:45:53;;;;;;;22.70;8.95;;;;;;;;;;5107025;28;20099;-67
2022/05/22 05:48:18;;;;;;;18.83;9.60;;;;;;;;;;5085245;28;20096;-66
2022/05/22 05:50:43;;;;;;;16.27;8.05;;;;;;;;;;5105492;28;20019;-66
2022/05/22 05:53:09;;;;;;;13.90;7.63;;;;;;;;;;5099749;28;20086;-66
2022/05/22 05:55:34;;;;;;;16.30;8.35;;;;;;;;;;5100676;28;20444;-67
2022/05/22 05:58:00;;;;;;;15.82;7.88;;;;;;;;;;5105626;28;20097;-67
2022/05/22 06:00:25;;;;;;;16.30;8.30;;;;;;;;;;5105161;28;20442;-66
2022/05/22 06:02:51;;;;;;;18.05;8.13;;;;;;;;;;5106040;28;20023;-67
2022/05/22 06:05:16;;;;;;;14.27;7.88;;;;;;;;;;5105953;28;20122;-67
2022/05/22 06:07:41;;;;;;;13.57;6.97;;;;;;;;;;5104107;28;20526;-67
2022/05/22 06:10:08;;;;;;;14.20;7.45;;;;;;;;;;5099206;28;20028;-68
2022/05/22 06:12:33;;;;;;;16.38;6.85;;;;;;;;;;5094019;28;20486;-67
2022/05/22 06:14:58;;;;;;;11.85;6.70;;;;;;;;;;5107414;27;20063;-68
2022/05/22 06:17:31;;;;;;;14.02;6.75;;;;;;;;;;5104373;28;20475;-67
2022/05/22 06:19:57;;;;;;;15.82;7.28;;;;;;;;;;5106271;27;20020;-67
2022/05/22 06:22:24;;;;;;;11.18;6.40;;;;;;;;;;5099231;28;20062;-67
2022/05/22 06:24:49;;;;;;;12.07;6.25;;;;;;;;;;5083415;28;20016;-67
2022/05/22 06:27:14;;;;;;;10.00;5.63;;;;;;;;;;5082519;28;20386;-67
2022/05/22 06:29:40;;;;;;;15.00;5.85;;;;;;;;;;5085065;28;20043;-67
2022/05/22 06:32:07;;;;;;;11.07;4.93;;;;;;;;;;5084328;28;20032;-66
2022/05/22 06:34:33;;;;;;;10.32;5.13;;;;;;;;;;5067344;28;20496;-67
2022/05/22 06:37:00;;;;;;;10.10;5.20;;;;;;;;;;5080401;28;20561;-67
2022/05/22 06:42:13;;;;;;;9.80;5.75;;;;;;;;;;5083950;28;20097;-66
2022/05/22 06:44:38;;;;;;;12.32;5.78;;;;;;;;;;5085046;28;20089;-66
2022/05/22 06:47:04;;;;;;;11.23;5.43;;;;;;;;;;5104911;28;20023;-67
2022/05/22 06:49:29;;;;;;;12.80;5.45;;;;;;;;;;5103083;28;20067;-67
2022/05/22 06:51:56;;;;;;;10.40;5.18;;;;;;;;;;5100079;28;20028;-66
2022/05/22 06:54:22;;;;;;;11.13;4.50;;;;;;;;;;5101817;27;20028;-67
2022/05/22 06:56:47;;;;;;;11.98;5.22;;;;;;;;;;5105993;28;20020;-68
2022/05/22 06:59:13;;;;;;;12.43;4.38;;;;;;;;;;5104366;28;20055;-66
2022/05/22 07:01:38;;;;;;;11.50;4.50;;;;;;;;;;5103524;28;20016;-67
2022/05/22 07:04:04;;;;;;;8.63;3.95;;;;;;;;;;5092609;28;20067;-68
2022/05/22 07:06:29;;;;;;;12.98;4.85;;;;;;;;;;5085859;28;20410;-66
2022/05/22 07:08:54;;;;;;;10.82;4.45;;;;;;;;;;5080019;28;20050;-66
2022/05/22 07:11:38;;;;;;;11.00;4.28;;;;;;;;;;5084667;28;20074;-69
2022/05/22 07:14:03;;;;;;;10.07;4.38;;;;;;;;;;5085717;28;20059;-66
2022/05/22 07:16:29;;;;;;;9.00;3.83;;;;;;;;;;5084156;28;20506;-68
2022/05/22 07:18:54;;;;;;;10.48;4.10;;;;;;;;;;5085130;28;20024;-66
2022/05/22 07:21:19;;;;;;;9.20;3.63;;;;;;;;;;5099061;28;20348;-66
2022/05/22 07:23:44;;;;;;;8.13;3.65;;;;;;;;;;5101864;28;20016;-66
2022/05/22 07:26:12;;;;;;;10.57;3.97;;;;;;;;;;5093033;28;20023;-67
2022/05/22 07:28:37;;;;;;;12.15;3.70;;;;;;;;;;5085730;28;20111;-67
2022/05/22 07:31:02;;;;;;;10.93;4.88;;;;;;;;;;5106326;28;20055;-67
2022/05/22 07:33:28;;;;;;;7.07;3.60;;;;;;;;;;5106315;28;20028;-67
2022/05/22 07:35:57;;;;;;;9.77;3.45;;;;;;;;;;5105257;28;20069;-66
2022/05/22 07:38:24;;;;;;;8.02;3.33;;;;;;;;;;5099731;28;20111;-65
2022/05/22 07:40:50;;;;;;;8.52;3.63;;;;;;;;;;5086097;28;20504;-67
2022/05/22 07:43:17;;;;;;;9.80;3.40;;;;;;;;;;5104886;28;20495;-66
2022/05/22 07:45:43;;;;;;;12.65;3.85;;;;;;;;;;5085770;28;20047;-66
2022/05/22 07:48:08;;;;;;;7.05;2.72;;;;;;;;;;5103803;28;20023;-66
2022/05/22 07:50:34;;;;;;;8.45;2.90;;;;;;;;;;5101726;28;20020;-67
2022/05/22 07:52:59;;;;;;;5.90;2.25;;;;;;;;;;5099801;28;20482;-67
2022/05/22 07:55:25;;;;;;;10.70;2.83;;;;;;;;;;5101609;28;20344;-66
2022/05/22 07:57:50;;;;;;;8.13;3.20;;;;;;;;;;5093581;28;20028;-66
2022/05/22 08:00:17;;;;;;;8.20;2.85;;;;;;;;;;5083550;28;20024;-68
2022/05/22 08:02:43;;;;;;;8.65;2.85;;;;;;;;;;5081855;28;20024;-67
2022/05/22 08:05:09;;;;;;;9.43;2.83;;;;;;;;;;5097656;28;20061;-66
2022/05/22 08:07:35;;;;;;;5.65;2.83;;;;;;;;;;5097876;28;20028;-67
2022/05/22 08:10:00;;;;;;;8.65;2.50;;;;;;;;;;5103691;28;20023;-67
2022/05/22 08:12:26;;;;;;;5.15;2.28;;;;;;;;;;5096836;28;20047;-67
2022/05/22 08:14:51;;;;;;;6.10;2.40;;;;;;;;;;5085058;28;20020;-66
2022/05/22 08:17:21;;;;;;;8.95;2.63;;;;;;;;;;5081544;28;20448;-67
2022/05/22 08:19:47;;;;;;;10.00;2.83;;;;;;;;;;5083497;28;20052;-67
2022/05/22 08:22:13;;;;;;;5.90;2.42;;;;;;;;;;5078370;28;20508;-67
2022/05/22 08:24:39;;;;;;;9.70;3.50;;;;;;;;;;5083384;28;20498;-66
2022/05/22 08:27:04;;;;;;;8.13;3.13;;;;;;;;;;5103015;28;20028;-67
2022/05/22 08:29:29;;;;;;;6.85;3.08;;;;;;;;;;5102403;28;20043;-67
2022/05/22 08:31:55;;;;;;;6.30;2.80;;;;;;;;;;5102482;28;20098;-67
2022/05/22 08:34:20;;;;;;;10.20;3.00;;;;;;;;;;5102805;28;20047;-66
2022/05/22 08:36:47;;;;;;;6.38;2.90;;;;;;;;;;5081715;28;20435;-67
2022/05/22 08:39:12;;;;;;;7.05;2.83;;;;;;;;;;5104038;28;20523;-66
2022/05/22 08:41:41;;;;;;;5.57;2.42;;;;;;;;;;5100672;28;20347;-66
2022/05/22 08:44:24;;;;;;;8.98;2.60;;;;;;;;;;5102743;28;20027;-67
2022/05/22 08:46:49;;;;;;;;;;;;;;;;;;5101868;28;20450;-66
2022/05/22 08:49:19;;;;;;;8.27;3.00;;;;;;;;;;5101918;28;20275;-67
2022/05/22 08:51:47;;;;;;;7.35;2.72;;;;;;;;;;5080844;28;20031;-66
2022/05/22 08:54:20;;;;;;;7.72;2.92;;;;;;;;;;5101569;28;20436;-67
2022/05/22 08:59:32;;;;;;;8.02;2.92;;;;;;;;;;5102158;28;20034;-66
2022/05/22 09:02:12;;;;;;;7.47;2.50;;;;;;;;;;5102545;28;20220;-68
2022/05/22 09:04:39;;;;;;;7.80;3.08;;;;;;;;;;5100833;28;20448;-67
2022/05/22 09:07:23;;;;;;;7.47;2.83;;;;;;;;;;5098881;28;20109;-67
2022/05/22 09:10:01;;;;;;;7.25;3.03;;;;;;;;;;5101330;28;20041;-66
2022/05/22 09:12:38;;;;;;;7.13;3.00;;;;;;;;;;5101157;28;20051;-66
2022/05/22 09:15:11;;;;;;;12.38;2.72;;;;;;;;;;5103437;28;20410;-67
2022/05/22 09:18:05;;;;;;;7.82;3.03;;;;;;;;;;5101593;28;20027;-66
2022/05/22 09:20:32;;;;;;;5.20;2.50;;;;;;;;;;5083170;28;20098;-67
2022/05/22 09:23:04;;;;;;;5.57;2.40;;;;;;;;;;5098036;28;20266;-66
2022/05/22 09:25:47;;;;;;;5.93;2.67;;;;;;;;;;5101575;28;20087;-67
2022/05/22 09:28:19;;;;;;;8.25;3.03;;;;;;;;;;5103472;28;20403;-66
2022/05/22 09:31:03;;;;;;;6.40;2.85;;;;;;;;;;5080540;28;20104;-63
2022/05/22 09:33:41;;;;;;;8.27;2.95;;;;;;;;;;5079502;28;20280;-66
2022/05/22 09:36:13;;;;;;;7.40;2.97;;;;;;;;;;5080330;28;20052;-67
2022/05/22 09:38:48;;;;;;;8.77;2.70;;;;;;;;;;5077917;28;20660;-65
2022/05/22 09:41:19;;;;;;;7.60;3.10;;;;;;;;;;5081817;28;20032;-66
2022/05/22 09:43:53;;;;;;;6.50;3.00;;;;;;;;;;5080973;28;20113;-68
2022/05/22 09:46:24;;;;;;;8.38;3.20;;;;;;;;;;5083206;28;20028;-67
2022/05/22 09:48:59;;;;;;;7.28;3.67;;;;;;;;;;5081257;28;20401;-66
2022/05/22 09:51:27;;;;;;;7.35;3.00;;;;;;;;;;5100347;28;20477;-66
2022/05/22 09:54:01;;;;;;;8.85;2.80;;;;;;;;;;5096277;28;20084;-66
2022/05/22 09:56:42;;;;;;;6.10;2.50;;;;;;;;;;5101162;28;20309;-67
2022/05/22 09:59:14;;;;;;;8.05;2.95;;;;;;;;;;5101731;28;20028;-66
2022/05/22 10:01:41;;;;;;;6.47;2.70;;;;;;;;;;5099702;28;20019;-66
2022/05/22 10:04:22;;;;;;;6.22;2.55;;;;;;;;;;5104208;28;20016;-67
2022/05/22 10:07:05;;;;;;;7.78;2.80;;;;;;;;;;5100477;28;20019;-67
2022/05/22 10:09:49;;;;;;;7.68;2.88;;;;;;;;;;5101659;28;20011;-66
2022/05/22 10:12:17;;;;;;;5.13;2.78;;;;;;;;;;5106009;27;20047;-67
2022/05/22 10:14:54;;;;;;;5.45;2.75;;;;;;;;;;5105673;28;20019;-68
2022/05/22 10:17:37;;;;;;;6.95;3.08;;;;;;;;;;5101837;28;20020;-67
2022/05/22 10:20:05;;;;;;;5.85;2.85;;;;;;;;;;5106467;28;20023;-67
2022/05/22 10:22:35;;;;;;;6.75;2.53;;;;;;;;;;5096849;28;20019;-65
2022/05/22 10:25:08;;;;;;;5.13;2.00;;;;;;;;;;5104891;28;20331;-66
2022/05/22 10:27:36;;;;;;;8.05;2.45;;;;;;;;;;5096919;28;20070;-67
2022/05/22 10:30:13;;;;;;;4.38;2.10;;;;;;;;;;5104520;28;20073;-66
2022/05/22 10:32:42;;;;;;;5.20;2.17;;;;;;;;;;5104952;28;20504;-67
2022/05/22 10:35:08;;;;;;;5.97;2.90;;;;;;;;;;5100518;28;20478;-68
2022/05/22 10:37:45;;;;;;;7.10;2.33;;;;;;;;;;5099127;28;20163;-68
2022/05/22 10:40:14;;;;;;;5.97;2.80;;;;;;;;;;5107176;28;20549;-67
2022/05/22 10:42:47;;;;;;;5.07;2.38;;;;;;;;;;5103202;28;20393;-68
2022/05/22 10:45:24;;;;;;;6.20;2.13;;;;;;;;;;5091906;28;20039;-68
2022/05/22 10:47:50;;;;;;;8.30;2.55;;;;;;;;;;5081180;28;20796;-67
2022/05/22 10:50:18;;;;;;;7.25;2.35;;;;;;;;;;5084836;28;20095;-67
2022/05/22 10:52:43;;;;;;;5.20;2.08;;;;;;;;;;5092943;28;20022;-67
2022/05/22 10:55:27;;;;;;;7.03;2.70;;;;;;;;;;5101226;28;20027;-68
2022/05/22 10:57:53;;;;;;;6.85;2.70;;;;;;;;;;5100938;28;20605;-66
2022/05/22 11:00:19;;;;;;;5.85;2.42;;;;;;;;;;5093486;28;20078;-67
2022/05/22 11:02:44;;;;;;;5.75;2.42;;;;;;;;;;5082592;28;20066;-68
2022/05/22 11:05:14;;;;;;;8.02;2.50;;;;;;;;;;5082618;28;20024;-68
2022/05/22 11:07:42;;;;;;;7.63;2.70;;;;;;;;;;5089106;28;20030;-67
2022/05/22 11:10:17;;;;;;;7.45;2.60;;;;;;;;;;5102983;28;20019;-67
2022/05/22 11:12:42;;;;;;;7.93;2.30;;;;;;;;;;5102325;28;20047;-68
2022/05/22 11:15:24;;;;;;;5.38;1.95;;;;;;;;;;5104030;27;20020;-67
2022/05/22 11:18:00;;;;;;;8.80;3.28;;;;;;;;;;5101863;28;20112;-67
2022/05/22 11:20:25;;;;;;;4.78;2.17;;;;;;;;;;5103369;28;20080;-68
2022/05/22 11:22:59;;;;;;;10.10;3.10;;;;;;;;;;5089711;28;20028;-68
2022/05/22 11:25:33;;;;;;;6.70;2.78;;;;;;;;;;5089973;28;20023;-68
2022/05/22 11:28:17;;;;;;;10.75;3.28;;;;;;;;;;5101228;28;20279;-68
2022/05/22 11:30:58;;;;;;;10.48;2.80;;;;;;;;;;5102276;28;20016;-67
2022/05/22 11:33:23;;;;;;;8.93;2.42;;;;;;;;;;5102943;28;20019;-67
2022/05/22 11:35:54;;;;;;;7.90;2.70;;;;;;;;;;5104236;28;20072;-67
2022/05/22 11:38:39;;;;;;;7.30;2.55;;;;;;;;;;5068222;28;20269;-67
2022/05/22 11:41:07;;;;;;;6.97;2.65;;;;;;;;;;5080782;28;20020;-67
2022/05/22 11:43:32;;;;;;;6.70;2.33;;;;;;;;;;5083715;28;20378;-67
2022/05/22 11:46:18;;;;;;;8.33;2.70;;;;;;;;;;5082242;28;20188;-69
2022/05/22 11:49:09;;;;;;;5.30;2.17;;;;;;;;;;5081634;28;20261;-67
2022/05/22 11:51:53;;;;;;;6.60;2.50;;;;;;;;;;5061883;28;20529;-66
2022/05/22 11:54:34;;;;;;;9.52;2.65;;;;;;;;;;5078521;28;20031;-68
2022/05/22 11:57:21;;;;;;;9.40;3.10;;;;;;;;;;5081801;28;20089;-67
2022/05/22 11:59:50;;;;;;;10.23;3.58;;;;;;;;;;5079720;28;20028;-64
2022/05/22 12:02:25;;;;;;;7.40;3.15;;;;;;;;;;5084430;28;20095;-63
2022/05/22 12:05:02;;;;;;;7.50;2.67;;;;;;;;;;5093000;28;20106;-67
2022/05/22 12:07:42;;;;;;;7.97;3.50;;;;;;;;;;5099426;28;20085;-67
2022/05/22 12:10:11;;;;;;;10.98;3.40;;;;;;;;;;5102019;28;20086;-67
2022/05/22 12:12:39;;;;;;;8.93;3.53;;;;;;;;;;5102191;28;20081;-66
2022/05/22 12:15:06;;;;;;;6.22;2.95;;;;;;;;;;5102440;28;20406;-65
2022/05/22 12:17:36;;;;;;;7.38;3.15;;;;;;;;;;5102723;28;20102;-66
2022/05/22 12:20:05;;;;;;;8.82;3.35;;;;;;;;;;5102183;28;20380;-67
2022/05/22 12:25:33;;;;;;;9.75;3.53;;;;;;;;;;5079254;28;20532;-66
2022/05/22 12:28:00;;;;;;;9.25;3.10;;;;;;;;;;5101819;28;20214;-66
2022/05/22 12:30:28;;;;;;;8.80;3.58;;;;;;;;;;5102052;28;20334;-66
2022/05/22 12:32:58;;;;;;;9.43;3.20;;;;;;;;;;5099199;28;20031;-66
2022/05/22 12:35:26;;;;;;;8.95;2.85;;;;;;;;;;5103827;28;20027;-67
2022/05/22 12:37:54;;;;;;;7.72;2.80;;;;;;;;;;5094954;28;20004;-66
2022/05/22 12:40:19;;;;;;;5.60;3.05;;;;;;;;;;5082248;28;20391;-66
2022/05/22 12:42:48;;;;;;;7.45;2.92;;;;;;;;;;5082222;28;20541;-67
2022/05/22 12:45:14;;;;;;;6.10;2.65;;;;;;;;;;5082682;28;20028;-67
2022/05/22 12:47:44;;;;;;;4.40;2.35;;;;;;;;;;5066192;28;20020;-68
2022/05/22 12:50:10;;;;;;;6.95;2.90;;;;;;;;;;5082366;28;20035;-66
2022/05/22 12:52:35;;;;;;;7.03;2.50;;;;;;;;;;5079377;28;20076;-67
2022/05/22 12:55:05;;;;;;;6.47;2.50;;;;;;;;;;5079938;28;20377;-66
2022/05/22 12:57:30;;;;;;;6.63;2.88;;;;;;;;;;5083929;28;20075;-66
2022/05/22 12:59:59;;;;;;;6.55;3.33;;;;;;;;;;5081016;28;20071;-67
2022/05/22 13:02:27;;;;;;;7.28;2.42;;;;;;;;;;5081891;28;20066;-67
2022/05/22 13:04:57;;;;;;;6.93;3.10;;;;;;;;;;5083171;28;20020;-66
2022/05/22 13:07:29;;;;;;;8.68;3.20;;;;;;;;;;5078897;28;20103;-67
2022/05/22 13:09:54;;;;;;;6.87;2.90;;;;;;;;;;5079818;28;20025;-67
2022/05/22 13:12:30;;;;;;;5.95;2.42;;;;;;;;;;5080564;28;20396;-68
2022/05/22 13:14:57;;;;;;;7.32;2.60;;;;;;;;;;5081199;28;20513;-67
2022/05/22 13:17:41;;;;;;;6.05;2.72;;;;;;;;;;5082731;28;20114;-68
2022/05/22 13:20:08;;;;;;;6.63;3.28;;;;;;;;;;5082369;28;20302;-66
2022/05/22 13:22:41;;;;;;;5.80;2.72;;;;;;;;;;5078522;28;20032;-67
2022/05/22 13:25:27;;;;;;;8.35;3.03;;;;;;;;;;5080071;28;20077;-66
2022/05/22 13:27:53;;;;;;;5.72;2.63;;;;;;;;;;5065756;28;20032;-66
2022/05/22 13:30:18;;;;;;;6.18;2.30;;;;;;;;;;5084167;28;20605;-68
2022/05/22 13:32:50;;;;;;;6.73;2.73;;;;;;;;;;5083254;28;20078;-67
2022/05/22 13:35:18;;;;;;;6.95;2.33;;;;;;;;;;5082626;28;20550;-67
2022/05/22 13:37:50;;;;;;;3.63;2.05;;;;;;;;;;5077977;28;20373;-68
2022/05/22 13:40:35;;;;;;;6.20;2.33;;;;;;;;;;5085631;28;20035;-67
2022/05/22 13:43:21;;;;;;;6.05;2.50;;;;;;;;;;5085318;28;20686;-68
2022/05/22 13:45:50;;;;;;;6.93;2.78;;;;;;;;;;5087987;28;20055;-68
2022/05/22 13:48:21;;;;;;;7.47;2.53;;;;;;;;;;5085754;28;20024;-66
2022/05/22 13:53:54;;;;;;;3.40;1.77;;;;;;;;;;5104402;28;20442;-69
2022/05/22 13:56:21;;;;;;;4.03;1.67;;;;;;;;;;5106676;28;20031;-67
2022/05/22 13:58:49;;;;;;;4.03;2.13;;;;;;;;;;5107623;28;20149;-66
2022/05/22 14:01:18;;;;;;;4.85;2.25;;;;;;;;;;5106162;28;20477;-67
2022/05/22 14:03:49;;;;;;;6.45;1.88;;;;;;;;;;5106392;28;20051;-65
2022/05/22 14:06:37;;;;;;;4.32;1.80;;;;;;;;;;5102972;28;20019;-66
2022/05/22 14:09:03;;;;;;;4.88;1.85;;;;;;;;;;5100902;28;20099;-67
2022/05/22 14:11:33;;;;;;;3.55;1.50;;;;;;;;;;5107626;28;20540;-66
2022/05/22 14:14:02;;;;;;;4.65;1.70;;;;;;;;;;5103930;28;20047;-66
2022/05/22 14:16:32;;;;;;;4.07;1.35;;;;;;;;;;5106393;28;20020;-67
2022/05/22 14:19:00;;;;;;;4.82;2.10;;;;;;;;;;5104895;28;20051;-67
2022/05/22 14:21:26;;;;;;;4.47;1.83;;;;;;;;;;5104699;28;20118;-67
2022/05/22 14:26:36;;;;;;;7.82;2.40;;;;;;;;;;5104891;28;20055;-67
2022/05/22 14:29:02;;;;;;;6.68;2.17;;;;;;;;;;5101151;28;20047;-66
2022/05/22 14:31:30;;;;;;;4.78;2.10;;;;;;;;;;5106703;28;20028;-67
2022/05/22 14:33:57;;;;;;;3.92;2.17;;;;;;;;;;5102886;28;20055;-67
2022/05/22 14:36:22;;;;;;;6.68;2.20;;;;;;;;;;5103928;28;20027;-66
2022/05/22 14:38:48;;;;;;;7.60;2.28;;;;;;;;;;5102170;28;20024;-66
2022/05/22 14:41:15;;;;;;;8.25;2.20;;;;;;;;;;5103744;28;20105;-66
2022/05/22 14:43:57;;;;;;;7.95;2.13;;;;;;;;;;5105539;28;20019;-66
2022/05/22 14:46:42;;;;;;;5.35;2.03;;;;;;;;;;5105836;28;20497;-65
2022/05/22 14:49:10;;;;;;;7.43;1.98;;;;;;;;;;5103286;28;20020;-66
2022/05/22 14:52:01;;;;;;;6.30;2.25;;;;;;;;;;5104565;28;20020;-68
2022/05/22 14:54:29;;;;;;;5.72;2.05;;;;;;;;;;5071625;28;20043;-66
2022/05/22 14:56:58;;;;;;;7.78;2.03;;;;;;;;;;5103720;27;20084;-67
2022/05/22 14:59:39;;;;;;;8.68;2.50;;;;;;;;;;5105994;28;20550;-67
2022/05/22 15:02:08;;;;;;;5.65;2.45;;;;;;;;;;5103094;28;20196;-67
2022/05/22 15:04:33;;;;;;;10.13;2.50;;;;;;;;;;5096728;28;20054;-67
2022/05/22 15:07:03;;;;;;;7.78;2.70;;;;;;;;;;5081012;28;20514;-66